Time;durP1;ratioP1;P1;durP2;ratioP2;P2;SDS_P1;SDS_P2;PMS_P1;PMS_P2;Temp;Humidity;BMP_temperature;BMP_pressure;BME280_temperature;BME280_humidity;BME280_pressure;Samples;Min_cycle;Max_cycle;Signal;HPM_P1;HPM_P2
2023/04/16 00:01:12;;;;;;;9.50;7.00;;;;;;;9.22;97.11;98786.70;107505;1310;22218;-41
2023/04/16 00:03:37;;;;;;;10.20;7.20;;;;;;;9.19;97.14;98788.77;107518;1310;22290;-41
2023/04/16 00:06:03;;;;;;;12.50;7.80;;;;;;;9.18;96.86;98792.67;107512;1310;22397;-41
2023/04/16 00:08:28;;;;;;;11.20;7.70;;;;;;;9.18;96.52;98789.89;107534;1310;22429;-41
2023/04/16 00:10:53;;;;;;;11.00;8.50;;;;;;;9.16;96.49;98792.33;107498;1310;23148;-39
2023/04/16 00:13:19;;;;;;;9.30;7.70;;;;;;;9.13;96.59;98791.62;107495;1310;23308;-41
2023/04/16 00:15:44;;;;;;;9.60;7.50;;;;;;;9.11;96.81;98796.95;107512;1310;22931;-42
2023/04/16 00:18:09;;;;;;;11.60;7.60;;;;;;;9.11;96.72;98797.98;107505;1310;22269;-41
2023/04/16 00:20:35;;;;;;;12.50;7.60;;;;;;;9.09;96.39;98795.34;107509;1310;22432;-41
2023/04/16 00:23:00;;;;;;;10.00;7.70;;;;;;;9.05;96.58;98798.71;107487;1306;22388;-42
2023/04/16 00:25:25;;;;;;;9.40;7.60;;;;;;;9.03;96.41;98798.61;107508;1310;22389;-41
2023/04/16 00:27:50;;;;;;;11.60;7.50;;;;;;;9.01;96.73;98800.65;107507;1310;22266;-41
2023/04/16 00:30:16;;;;;;;8.80;7.60;;;;;;;9.00;96.64;98800.91;107478;1310;22207;-41
2023/04/16 00:32:41;;;;;;;8.80;7.70;;;;;;;8.97;96.86;98798.48;107496;1310;22374;-41
2023/04/16 00:35:07;;;;;;;10.30;7.40;;;;;;;8.94;97.11;98796.67;107467;1310;22683;-40
2023/04/16 00:37:32;;;;;;;11.40;8.40;;;;;;;8.93;97.11;98801.13;107511;1310;22225;-40
2023/04/16 00:39:57;;;;;;;11.40;8.40;;;;;;;8.91;97.12;98798.98;107510;1310;22206;-41
2023/04/16 00:42:22;;;;;;;9.90;8.40;;;;;;;8.91;97.36;98798.80;107505;1310;23015;-42
2023/04/16 00:44:48;;;;;;;11.90;8.80;;;;;;;8.88;97.22;98800.17;107515;1310;22249;-42
2023/04/16 00:47:13;;;;;;;11.50;8.30;;;;;;;8.86;97.06;98802.75;107489;1310;22844;-42
2023/04/16 00:49:38;;;;;;;11.20;8.60;;;;;;;8.82;97.11;98801.88;107503;1310;22237;-42
2023/04/16 00:52:04;;;;;;;12.80;8.90;;;;;;;8.81;97.41;98804.61;107496;1310;22222;-40
2023/04/16 00:54:30;;;;;;;12.10;8.60;;;;;;;8.80;97.02;98803.08;107511;1310;22217;-40
2023/04/16 00:56:57;;;;;;;12.40;9.00;;;;;;;8.77;97.56;98802.70;107493;1310;22403;-40
2023/04/16 00:59:22;;;;;;;11.50;9.20;;;;;;;8.77;97.84;98805.33;107492;1310;22907;-40
2023/04/16 01:01:48;;;;;;;11.20;8.80;;;;;;;8.75;97.68;98808.41;107463;1310;22262;-39
2023/04/16 01:04:13;;;;;;;14.40;10.40;;;;;;;8.73;97.79;98812.91;107483;1310;22955;-41
2023/04/16 01:06:39;;;;;;;12.60;9.20;;;;;;;8.73;97.45;98812.88;107465;1310;22233;-41
2023/04/16 01:09:04;;;;;;;11.90;9.30;;;;;;;8.73;97.56;98813.79;107495;1310;22394;-41
2023/04/16 01:11:30;;;;;;;13.70;8.70;;;;;;;8.72;97.73;98813.48;107490;1310;22242;-42
2023/04/16 01:13:55;;;;;;;11.20;9.00;;;;;;;8.71;97.51;98810.91;107487;1310;22276;-42
2023/04/16 01:16:20;;;;;;;10.10;8.50;;;;;;;8.70;97.32;98813.95;107504;1310;22394;-41
2023/04/16 01:18:45;;;;;;;10.20;8.50;;;;;;;8.67;97.74;98815.52;107465;1310;22418;-41
2023/04/16 01:21:11;;;;;;;13.20;9.00;;;;;;;8.66;97.73;98813.12;107486;1310;23290;-41
2023/04/16 01:23:36;;;;;;;10.70;9.30;;;;;;;8.63;97.68;98810.66;107492;1310;22281;-42
2023/04/16 01:26:01;;;;;;;19.40;10.30;;;;;;;8.63;97.72;98815.20;107471;1310;23262;-40
2023/04/16 01:28:27;;;;;;;16.30;10.60;;;;;;;8.62;97.80;98811.75;107457;1310;22216;-42
2023/04/16 01:30:52;;;;;;;14.30;10.20;;;;;;;8.63;97.91;98811.17;107461;1310;22256;-41
2023/04/16 01:33:18;;;;;;;16.00;10.00;;;;;;;8.62;97.95;98811.73;107457;1310;22306;-42
2023/04/16 01:35:43;;;;;;;13.70;10.20;;;;;;;8.61;98.16;98810.76;107477;1310;22224;-41
2023/04/16 01:38:09;;;;;;;12.50;9.60;;;;;;;8.60;97.93;98815.87;107468;1311;22915;-40
2023/04/16 01:40:35;;;;;;;14.00;10.50;;;;;;;8.59;98.05;98816.13;107487;1310;23185;-41
2023/04/16 01:43:01;;;;;;;14.00;9.90;;;;;;;8.59;98.24;98814.19;107395;1310;23169;-42
2023/04/16 01:45:27;;;;;;;14.90;10.40;;;;;;;8.58;98.30;98819.83;107464;1310;23078;-42
2023/04/16 01:47:52;;;;;;;15.20;10.90;;;;;;;8.56;98.15;98819.77;107467;1310;22947;-41
2023/04/16 01:50:19;;;;;;;12.20;10.10;;;;;;;8.56;97.95;98821.36;107484;1310;22253;-41
2023/04/16 01:52:45;;;;;;;12.60;10.20;;;;;;;8.55;97.80;98825.08;107492;1310;22233;-42
2023/04/16 01:55:11;;;;;;;11.30;9.70;;;;;;;8.52;97.95;98824.03;107483;1310;22868;-41
2023/04/16 01:57:36;;;;;;;12.20;9.60;;;;;;;8.47;98.41;98826.38;107487;1310;22272;-40
2023/04/16 02:00:02;;;;;;;13.00;10.30;;;;;;;8.47;98.55;98824.98;107466;1310;22967;-40
2023/04/16 02:02:28;;;;;;;16.00;10.30;;;;;;;8.44;98.49;98824.59;107483;1310;22270;-40
2023/04/16 02:04:56;;;;;;;13.90;10.30;;;;;;;8.42;98.54;98828.89;107500;1310;22743;-41
2023/04/16 02:07:21;;;;;;;;;;;;;;;8.42;98.67;98829.09;107490;1310;23192;-41
2023/04/16 02:09:46;;;;;;;15.50;10.90;;;;;;;8.41;99.15;98829.47;107476;1310;22219;-41
2023/04/16 02:12:12;;;;;;;17.90;11.20;;;;;;;8.42;98.67;98832.70;107473;1311;23223;-39
2023/04/16 02:14:37;;;;;;;17.00;11.30;;;;;;;8.44;98.62;98840.14;107461;1306;23272;-40
2023/04/16 02:17:03;;;;;;;13.80;10.70;;;;;;;8.47;98.59;98840.35;107487;1310;22310;-41
2023/04/16 02:19:29;;;;;;;13.90;11.60;;;;;;;8.45;98.78;98845.33;107510;1310;22261;-41
2023/04/16 02:21:54;;;;;;;16.90;11.80;;;;;;;8.47;98.46;98848.77;107483;1310;22439;-41
2023/04/16 02:24:19;;;;;;;16.60;11.80;;;;;;;8.50;98.44;98849.46;107477;1310;23014;-40
2023/04/16 02:26:45;;;;;;;17.70;13.30;;;;;;;8.55;98.15;98846.06;107482;1310;22221;-41
2023/04/16 02:29:10;;;;;;;15.60;12.20;;;;;;;8.59;97.91;98847.91;107479;1310;22171;-40
2023/04/16 02:31:36;;;;;;;15.20;12.20;;;;;;;8.58;97.99;98847.98;107480;1310;22230;-41
2023/04/16 02:34:02;;;;;;;18.50;12.60;;;;;;;8.59;97.71;98850.88;107407;1310;22806;-40
2023/04/16 02:36:27;;;;;;;16.90;12.20;;;;;;;8.57;97.58;98853.27;107475;1310;22407;-40
2023/04/16 02:38:53;;;;;;;16.50;12.80;;;;;;;8.56;97.69;98852.30;107458;1310;22278;-41
2023/04/16 02:41:18;;;;;;;18.90;12.90;;;;;;;8.56;97.74;98852.45;107479;1310;23094;-41
2023/04/16 02:43:43;;;;;;;16.40;13.00;;;;;;;8.58;97.49;98854.45;107400;1311;22285;-41
2023/04/16 02:46:09;;;;;;;17.70;13.00;;;;;;;8.55;97.31;98854.41;107496;1310;22874;-39
2023/04/16 02:50:18;;;;;;;17.30;13.30;;;;;;;8.52;97.59;98859.16;106867;1305;545042;-42
2023/04/16 02:52:43;;;;;;;23.60;14.10;;;;;;;8.48;98.04;98862.86;107604;1311;22253;-40
2023/04/16 02:55:10;;;;;;;19.30;12.70;;;;;;;8.49;98.15;98862.27;107586;1311;22659;-43
2023/04/16 02:57:35;;;;;;;18.50;13.10;;;;;;;8.48;97.91;98863.52;107405;1311;22971;-43
2023/04/16 03:00:00;;;;;;;17.40;13.30;;;;;;;8.48;97.68;98870.01;107601;1311;22281;-43
2023/04/16 03:02:26;;;;;;;19.90;13.10;;;;;;;8.51;97.58;98870.20;107589;1311;22240;-44
2023/04/16 03:04:52;;;;;;;16.40;13.10;;;;;;;8.53;97.49;98873.77;107686;1308;166967;-42
2023/04/16 03:07:17;;;;;;;17.40;13.70;;;;;;;8.54;97.66;98871.61;107818;1308;22241;-41
2023/04/16 03:09:43;;;;;;;20.00;14.00;;;;;;;8.54;97.38;98878.23;107817;1308;23008;-41
2023/04/16 03:12:09;;;;;;;17.00;12.40;;;;;;;8.53;97.62;98879.14;107934;1308;23240;-43
2023/04/16 03:14:34;;;;;;;15.70;13.00;;;;;;;8.48;97.30;98881.67;107904;1308;23058;-42
2023/04/16 03:17:00;;;;;;;14.70;12.50;;;;;;;8.46;97.26;98884.25;107906;1308;22996;-43
2023/04/16 03:19:25;;;;;;;21.00;13.70;;;;;;;8.45;97.43;98887.41;107894;1308;22414;-42
2023/04/16 03:21:50;;;;;;;19.50;14.10;;;;;;;8.45;97.46;98889.05;107918;1308;22428;-43
2023/04/16 03:24:16;;;;;;;18.60;13.30;;;;;;;8.48;97.73;98892.39;107884;1308;22470;-41
2023/04/16 03:26:41;;;;;;;17.60;13.80;;;;;;;8.48;97.81;98890.80;107895;1308;23065;-41
2023/04/16 03:29:06;;;;;;;19.80;14.20;;;;;;;8.49;97.94;98898.06;107884;1308;22212;-42
2023/04/16 03:31:32;;;;;;;19.70;14.00;;;;;;;8.51;97.70;98897.09;107904;1308;22306;-44
2023/04/16 03:33:57;;;;;;;18.80;14.00;;;;;;;8.51;98.16;98899.88;107867;1308;22281;-43
2023/04/16 03:36:25;;;;;;;20.50;14.80;;;;;;;8.52;97.93;98899.14;107903;1308;22241;-43
2023/04/16 03:38:51;;;;;;;21.50;15.30;;;;;;;8.54;97.77;98902.04;107518;1308;22989;-44
2023/04/16 03:41:17;;;;;;;20.30;15.30;;;;;;;8.53;97.31;98899.97;107888;1308;22402;-42
2023/04/16 03:43:42;;;;;;;23.60;15.50;;;;;;;8.53;96.86;98899.45;107862;1308;22237;-46
2023/04/16 03:46:07;;;;;;;19.90;16.20;;;;;;;8.54;96.48;98899.40;107838;1308;23391;-45
2023/04/16 03:48:32;;;;;;;20.40;15.90;;;;;;;8.55;97.16;98902.11;107853;1308;22223;-41
2023/04/16 03:50:58;;;;;;;28.30;17.20;;;;;;;8.54;96.98;98904.08;107864;1308;22299;-42
2023/04/16 03:53:23;;;;;;;25.00;16.60;;;;;;;8.55;96.93;98910.51;107838;1308;22930;-41
2023/04/16 03:55:52;;;;;;;20.70;15.60;;;;;;;8.54;96.56;98912.84;107866;1308;22502;-43
2023/04/16 03:58:18;;;;;;;22.30;15.90;;;;;;;8.54;96.31;98917.23;107845;1308;22237;-42
2023/04/16 04:00:44;;;;;;;21.90;15.70;;;;;;;8.53;95.71;98919.89;107829;1308;22242;-53
2023/04/16 04:03:10;;;;;;;22.70;15.80;;;;;;;8.46;95.34;98922.33;107848;1308;22293;-43
2023/04/16 04:05:37;;;;;;;21.00;16.40;;;;;;;8.43;95.24;98922.48;107849;1308;22237;-41
2023/04/16 04:08:03;;;;;;;20.90;16.10;;;;;;;8.40;95.14;98924.39;107829;1308;22197;-41
2023/04/16 04:10:31;;;;;;;22.30;16.50;;;;;;;8.37;95.24;98923.65;107823;1308;22993;-41
2023/04/16 04:12:56;;;;;;;22.90;17.40;;;;;;;8.36;95.44;98925.09;107793;1308;22245;-42
2023/04/16 04:15:22;;;;;;;22.10;17.10;;;;;;;8.33;95.19;98929.08;107757;1309;22248;-41
2023/04/16 04:17:47;;;;;;;22.50;18.00;;;;;;;8.34;95.72;98934.64;107742;1309;23069;-42
2023/04/16 04:20:12;;;;;;;22.70;17.40;;;;;;;8.35;95.70;98939.62;107758;1309;22253;-43
2023/04/16 04:22:38;;;;;;;28.60;16.90;;;;;;;8.36;95.67;98937.84;107831;1308;22557;-42
2023/04/16 04:25:03;;;;;;;27.20;18.70;;;;;;;8.38;95.94;98935.63;107797;1308;22252;-41
2023/04/16 04:27:28;;;;;;;21.20;16.80;;;;;;;8.40;95.88;98938.84;107808;1308;22246;-46
2023/04/16 04:29:54;;;;;;;20.60;16.60;;;;;;;8.43;95.88;98945.54;107818;1308;22365;-43
2023/04/16 04:32:19;;;;;;;23.60;16.70;;;;;;;8.42;96.02;98947.15;107779;1308;22427;-41
2023/04/16 04:34:44;;;;;;;25.30;17.70;;;;;;;8.42;95.96;98944.17;107792;1308;22287;-41
2023/04/16 04:37:10;;;;;;;20.10;15.30;;;;;;;8.42;95.34;98948.34;107784;1308;22495;-43
2023/04/16 04:39:35;;;;;;;22.00;15.80;;;;;;;8.40;95.08;98950.20;107793;1308;22233;-41
2023/04/16 04:42:02;;;;;;;23.00;16.70;;;;;;;8.42;95.08;98954.33;107822;1308;23189;-42
2023/04/16 04:44:27;;;;;;;21.90;16.80;;;;;;;8.42;95.00;98956.74;107819;1308;22944;-43
2023/04/16 04:46:52;;;;;;;24.90;17.10;;;;;;;8.45;94.77;98956.59;107818;1295;22483;-45
2023/04/16 04:49:17;;;;;;;21.80;16.40;;;;;;;8.49;94.46;98956.08;107874;1307;22212;-41
2023/04/16 04:51:43;;;;;;;22.90;17.40;;;;;;;8.49;94.59;98957.79;107892;1308;22459;-41
2023/04/16 04:54:08;;;;;;;26.80;18.00;;;;;;;8.48;94.84;98965.37;107965;1307;22896;-43
2023/04/16 04:56:33;;;;;;;21.10;17.60;;;;;;;8.48;95.11;98964.35;107955;1307;22267;-43
2023/04/16 04:58:59;;;;;;;22.00;17.50;;;;;;;8.51;95.00;98968.70;107943;1307;22528;-43
2023/04/16 05:01:24;;;;;;;22.80;17.70;;;;;;;8.54;95.22;98970.17;107938;1307;22766;-43
2023/04/16 05:03:50;;;;;;;22.60;17.00;;;;;;;8.58;94.86;98972.54;107951;1307;23284;-41
2023/04/16 05:06:15;;;;;;;23.60;17.10;;;;;;;8.62;94.71;98976.33;107922;1307;23314;-46
2023/04/16 05:08:40;;;;;;;23.60;17.30;;;;;;;8.67;94.58;98978.87;107937;1307;22367;-46
2023/04/16 05:11:06;;;;;;;25.40;18.80;;;;;;;8.69;94.83;98983.89;107955;1307;22925;-44
2023/04/16 05:13:31;;;;;;;24.90;17.50;;;;;;;8.68;94.53;98986.35;107960;1307;23065;-41
2023/04/16 05:15:57;;;;;;;24.20;17.40;;;;;;;8.68;94.61;98989.16;107939;1307;22431;-43
2023/04/16 05:18:22;;;;;;;22.80;17.30;;;;;;;8.70;94.31;98992.20;107966;1307;22239;-42
2023/04/16 05:20:48;;;;;;;22.10;17.40;;;;;;;8.70;93.96;98992.17;107931;1307;22325;-44
2023/04/16 05:23:14;;;;;;;22.70;17.40;;;;;;;8.72;94.15;98992.11;107952;1307;22244;-45
2023/04/16 05:25:39;;;;;;;22.90;17.20;;;;;;;8.71;93.91;98996.35;107966;1307;22349;-43
2023/04/16 05:28:05;;;;;;;22.00;17.50;;;;;;;8.75;93.40;98998.94;107943;1307;23395;-44
2023/04/16 05:30:30;;;;;;;24.70;17.80;;;;;;;8.75;93.69;99006.25;107940;1307;22229;-43
2023/04/16 05:32:55;;;;;;;23.50;17.20;;;;;;;8.76;94.03;99007.11;106937;1297;22611;-40
2023/04/16 05:35:21;;;;;;;23.40;17.90;;;;;;;8.75;93.88;99012.90;106705;1308;25360;-41
2023/04/16 05:37:46;;;;;;;25.20;18.40;;;;;;;8.77;94.14;99017.33;106873;1308;23045;-40
2023/04/16 05:40:12;;;;;;;24.00;17.80;;;;;;;8.75;93.53;99016.76;106938;1308;22622;-43
2023/04/16 05:42:38;;;;;;;27.80;18.70;;;;;;;8.77;93.73;99018.03;107178;1308;22317;-40
2023/04/16 05:45:04;;;;;;;22.60;17.90;;;;;;;8.77;94.03;99020.48;107208;1308;25453;-41
2023/04/16 05:47:29;;;;;;;24.20;18.50;;;;;;;8.77;93.50;99023.10;106814;1308;22608;-37
2023/04/16 05:49:55;;;;;;;26.20;18.70;;;;;;;8.76;93.92;99022.98;106654;1308;22741;-41
2023/04/16 05:52:20;;;;;;;25.30;17.20;;;;;;;8.80;93.83;99023.32;107799;1308;22226;-46
2023/04/16 05:54:45;;;;;;;26.80;17.50;;;;;;;8.82;94.09;99031.59;107799;1308;22471;-42
2023/04/16 05:57:12;;;;;;;24.30;17.40;;;;;;;8.87;94.18;99031.86;107796;1308;22247;-42
2023/04/16 05:59:38;;;;;;;27.90;17.10;;;;;;;8.89;93.11;99033.36;107808;1308;22274;-42
2023/04/16 06:02:03;;;;;;;22.10;17.40;;;;;;;8.92;92.64;99032.13;107050;1308;22561;-42
2023/04/16 06:04:29;;;;;;;27.30;16.50;;;;;;;8.94;92.26;99035.33;106708;1308;22545;-41
2023/04/16 06:06:55;;;;;;;27.30;17.30;;;;;;;8.95;92.24;99037.40;107803;1308;22463;-42
2023/04/16 06:09:20;;;;;;;99.40;56.90;;;;;;;8.97;92.51;99040.95;107827;1299;22217;-43
2023/04/16 06:11:45;;;;;;;28.60;20.20;;;;;;;9.02;92.83;99041.23;107779;1308;22283;-41
2023/04/16 06:14:11;;;;;;;27.20;19.10;;;;;;;9.09;92.96;99040.48;107477;1308;22224;-40
2023/04/16 06:16:36;;;;;;;23.40;16.30;;;;;;;9.11;91.68;99044.56;107810;1308;22209;-43
2023/04/16 06:19:01;;;;;;;29.40;18.60;;;;;;;9.13;91.40;99044.13;107809;1308;23233;-41
2023/04/16 06:21:27;;;;;;;28.60;19.10;;;;;;;9.13;90.46;99044.63;107844;1308;22232;-43
2023/04/16 06:23:54;;;;;;;32.70;20.60;;;;;;;9.13;90.12;99047.45;107826;1308;22268;-43
2023/04/16 06:26:19;;;;;;;25.30;18.10;;;;;;;9.20;91.08;99044.29;107853;1308;22233;-43
2023/04/16 06:28:45;;;;;;;24.90;17.70;;;;;;;9.26;90.47;99045.19;107823;1308;22582;-42
2023/04/16 06:31:10;;;;;;;25.30;17.50;;;;;;;9.32;90.62;99048.00;107804;1308;22259;-40
2023/04/16 06:33:36;;;;;;;23.40;17.60;;;;;;;9.34;91.26;99047.74;107806;1308;23030;-42
2023/04/16 06:36:01;;;;;;;24.10;17.10;;;;;;;9.41;91.23;99044.74;107814;1308;22517;-42
2023/04/16 06:38:26;;;;;;;23.10;16.80;;;;;;;9.45;90.68;99046.61;107844;1308;22297;-41
2023/04/16 06:40:52;;;;;;;23.60;17.00;;;;;;;9.43;90.06;99048.47;107833;1308;23226;-43
2023/04/16 06:43:17;;;;;;;24.10;16.40;;;;;;;9.43;90.09;99050.02;107808;1308;22460;-45
2023/04/16 06:45:42;;;;;;;50.20;28.70;;;;;;;9.41;90.63;99054.03;107815;1308;22480;-46
2023/04/16 06:48:08;;;;;;;47.50;30.00;;;;;;;9.39;90.48;99053.56;107806;1308;22374;-44
2023/04/16 06:50:33;;;;;;;30.40;20.60;;;;;;;9.38;90.76;99055.03;107811;1308;22267;-44
2023/04/16 06:53:41;;;;;;;29.50;19.00;;;;;;;9.36;89.98;99056.55;107820;1308;24149;-43
2023/04/16 06:55:48;;;;;;;29.00;17.80;;;;;;;9.27;89.63;99057.17;107483;1308;22537;-41
2023/04/16 06:58:13;;;;;;;28.40;18.20;;;;;;;9.35;89.75;99062.91;107812;1308;22219;-42
2023/04/16 07:00:39;;;;;;;29.80;19.10;;;;;;;9.29;90.08;99066.02;107649;1308;22334;-42
2023/04/16 07:03:04;;;;;;;30.20;20.50;;;;;;;9.32;90.79;99066.91;107810;1308;22437;-40
2023/04/16 07:05:30;;;;;;;29.20;18.30;;;;;;;9.37;90.96;99066.84;107817;1308;22259;-42
2023/04/16 07:07:56;;;;;;;28.30;19.20;;;;;;;9.35;91.29;99070.77;107816;1308;22237;-41
2023/04/16 07:10:22;;;;;;;27.70;19.70;;;;;;;9.40;91.06;99072.24;107824;1308;22921;-44
2023/04/16 07:12:47;;;;;;;29.30;19.50;;;;;;;9.47;91.18;99074.86;107820;1308;22408;-43
2023/04/16 07:15:12;;;;;;;35.80;20.70;;;;;;;9.56;91.40;99078.90;107813;1308;22251;-43
2023/04/16 07:17:38;;;;;;;35.60;20.70;;;;;;;9.62;91.47;99084.38;107813;1308;23088;-41
2023/04/16 07:20:03;;;;;;;32.00;20.20;;;;;;;9.64;90.23;99085.63;107794;1308;22236;-43
2023/04/16 07:22:29;;;;;;;36.30;22.20;;;;;;;9.66;89.50;99088.19;107814;1308;22292;-42
2023/04/16 07:24:54;;;;;;;31.80;19.10;;;;;;;9.68;89.45;99090.31;107801;1308;22990;-43
2023/04/16 07:27:20;;;;;;;29.50;19.00;;;;;;;9.66;88.61;99087.98;107789;1308;22232;-42
2023/04/16 07:29:45;;;;;;;33.30;19.80;;;;;;;9.71;87.97;99093.31;107809;1308;22223;-42
2023/04/16 07:32:11;;;;;;;30.50;20.00;;;;;;;9.68;87.54;99097.02;107813;1308;22442;-44
2023/04/16 07:34:36;;;;;;;36.10;21.60;;;;;;;9.74;87.91;99100.89;107806;1308;22172;-43
2023/04/16 07:37:01;;;;;;;36.30;22.10;;;;;;;9.71;87.83;99103.65;107811;1308;22332;-43
2023/04/16 07:39:27;;;;;;;35.40;21.40;;;;;;;9.62;86.55;99107.30;107799;1308;22335;-41
2023/04/16 07:41:52;;;;;;;36.80;22.30;;;;;;;9.59;87.17;99113.73;107815;1308;22324;-43
2023/04/16 07:44:17;;;;;;;34.20;21.70;;;;;;;9.66;87.61;99116.55;107853;1308;22275;-41
2023/04/16 07:46:43;;;;;;;34.10;20.20;;;;;;;9.75;87.40;99120.24;107815;1308;22507;-44
2023/04/16 07:49:08;;;;;;;28.30;19.20;;;;;;;9.82;87.34;99124.79;107795;1288;22394;-42
2023/04/16 07:51:33;;;;;;;31.60;19.50;;;;;;;9.74;87.92;99126.24;107809;1308;22307;-42
2023/04/16 07:53:58;;;;;;;31.90;19.30;;;;;;;9.71;87.16;99130.11;107456;1308;22572;-48
2023/04/16 07:56:24;;;;;;;32.10;20.10;;;;;;;9.74;87.55;99133.42;107524;1308;23552;-44
2023/04/16 07:58:49;;;;;;;38.50;20.10;;;;;;;9.72;87.46;99133.71;107821;1308;22237;-42
2023/04/16 08:01:15;;;;;;;36.80;19.00;;;;;;;9.76;87.69;99136.98;107797;1308;22671;-43
2023/04/16 08:03:41;;;;;;;25.70;16.80;;;;;;;9.81;88.50;99140.90;107809;1308;23325;-44
2023/04/16 08:06:06;;;;;;;23.00;16.00;;;;;;;9.88;88.42;99140.73;107806;1308;22867;-44
2023/04/16 08:08:32;;;;;;;21.60;16.00;;;;;;;9.95;87.36;99145.40;107784;1308;22424;-44
2023/04/16 08:10:57;;;;;;;27.80;16.50;;;;;;;10.04;87.46;99146.50;107781;1308;22294;-41
2023/04/16 08:13:23;;;;;;;25.90;17.00;;;;;;;10.10;87.19;99149.85;107779;1308;22236;-41
2023/04/16 08:15:48;;;;;;;27.30;20.40;;;;;;;10.17;86.43;99153.61;107794;1308;22519;-41
2023/04/16 08:18:14;;;;;;;27.10;19.30;;;;;;;10.25;86.46;99151.47;107776;1308;22211;-41
2023/04/16 08:20:40;;;;;;;24.60;17.50;;;;;;;10.27;84.96;99160.82;107811;1308;22287;-42
2023/04/16 08:23:06;;;;;;;25.90;18.10;;;;;;;10.22;83.94;99160.89;107838;1308;22610;-44
2023/04/16 08:25:31;;;;;;;29.70;19.90;;;;;;;10.21;85.20;99160.08;107818;1308;22319;-43
2023/04/16 08:27:56;;;;;;;28.10;18.30;;;;;;;10.22;84.36;99165.27;107837;1308;23134;-46
2023/04/16 08:30:22;;;;;;;22.90;16.80;;;;;;;10.21;84.20;99167.63;107832;1308;22488;-41
2023/04/16 08:32:48;;;;;;;24.90;17.80;;;;;;;10.23;84.26;99168.38;107828;1308;22240;-41
2023/04/16 08:35:14;;;;;;;19.80;15.90;;;;;;;10.22;84.98;99168.81;107826;1308;23219;-45
2023/04/16 08:37:39;;;;;;;26.00;17.40;;;;;;;10.20;85.52;99170.29;107823;1308;22256;-43
2023/04/16 08:40:05;;;;;;;28.90;20.70;;;;;;;10.18;85.62;99170.92;107821;1308;22263;-43
2023/04/16 08:42:35;;;;;;;29.90;15.90;;;;;;;10.25;85.67;99172.13;107826;1308;22253;-43
2023/04/16 08:45:22;;;;;;;18.60;13.00;;;;;;;10.30;83.49;99173.82;107828;1308;22431;-41
2023/04/16 08:47:48;;;;;;;20.50;13.50;;;;;;;10.32;82.63;99173.52;107814;1302;23614;-43
2023/04/16 08:50:25;;;;;;;18.30;12.70;;;;;;;10.43;82.59;99175.35;107414;1307;22953;-45
2023/04/16 08:52:55;;;;;;;18.20;12.90;;;;;;;10.47;81.97;99178.67;106872;1307;22563;-39
2023/04/16 08:55:25;;;;;;;18.40;12.60;;;;;;;10.60;81.93;99179.80;107724;1307;22566;-44
2023/04/16 08:57:53;;;;;;;16.10;13.20;;;;;;;10.70;81.18;99186.12;107615;1304;22680;-43
2023/04/16 09:00:20;;;;;;;21.30;14.40;;;;;;;10.84;81.11;99186.35;107940;1304;22550;-43
2023/04/16 09:02:45;;;;;;;17.80;14.10;;;;;;;10.87;80.49;99189.15;108315;1304;22236;-41
2023/04/16 09:05:16;;;;;;;17.20;13.60;;;;;;;10.97;80.38;99192.65;108317;1304;22225;-43
2023/04/16 09:07:43;;;;;;;18.00;13.30;;;;;;;11.06;79.57;99197.36;108332;1304;22432;-43
2023/04/16 09:10:08;;;;;;;;;;;;;;;11.19;79.82;99195.16;108318;1304;22448;-41
2023/04/16 09:12:34;;;;;;;15.20;12.20;;;;;;;11.32;81.01;99198.80;108306;1304;22407;-43
2023/04/16 09:15:02;;;;;;;17.50;12.00;;;;;;;11.36;79.65;99199.23;108317;1304;23035;-41
2023/04/16 09:17:27;;;;;;;16.40;12.20;;;;;;;11.45;78.41;99199.40;108349;1304;22398;-46
2023/04/16 09:19:53;;;;;;;14.00;11.10;;;;;;;11.60;79.64;99200.27;108325;1304;22814;-45
2023/04/16 09:22:19;;;;;;;15.50;11.40;;;;;;;11.68;77.74;99205.04;108329;1289;22394;-42
2023/04/16 09:24:44;;;;;;;14.30;12.30;;;;;;;11.72;77.17;99207.63;108334;1304;22513;-42
2023/04/16 09:27:11;;;;;;;113.40;64.60;;;;;;;11.79;78.44;99208.08;108325;1304;22927;-41
2023/04/16 09:29:39;;;;;;;129.30;76.20;;;;;;;11.74;76.62;99210.66;108329;1304;22218;-45
2023/04/16 09:32:06;;;;;;;27.90;19.60;;;;;;;11.76;76.41;99210.73;108315;1304;22508;-44
2023/04/16 09:34:32;;;;;;;;;;;;;;;11.84;77.01;99213.38;108327;1304;23227;-46
2023/04/16 09:37:17;;;;;;;17.80;13.10;;;;;;;11.97;76.91;99212.09;108254;1304;23095;-44
2023/04/16 09:39:53;;;;;;;15.30;12.00;;;;;;;12.61;75.64;99219.77;108321;1304;22476;-41
2023/04/16 09:42:24;;;;;;;15.10;11.90;;;;;;;13.11;70.91;99223.77;108045;1304;22469;-43
2023/04/16 09:44:50;;;;;;;14.40;12.00;;;;;;;13.41;70.69;99224.38;108340;1304;22270;-42
2023/04/16 09:47:16;;;;;;;16.30;10.80;;;;;;;13.88;69.96;99218.55;108347;1304;23621;-44
2023/04/16 09:49:42;;;;;;;12.80;10.60;;;;;;;14.33;66.92;99219.58;108316;1304;22295;-44
2023/04/16 09:52:15;;;;;;;12.10;10.00;;;;;;;14.82;63.78;99223.48;108314;1304;22713;-44
2023/04/16 09:54:51;;;;;;;11.60;9.20;;;;;;;15.60;64.41;99221.83;108322;1304;22410;-45
2023/04/16 09:57:21;;;;;;;11.40;9.40;;;;;;;16.19;59.57;99219.84;108312;1304;22413;-45
2023/04/16 09:59:47;;;;;;;15.00;10.10;;;;;;;16.77;56.41;99223.04;108318;1304;22222;-47
2023/04/16 10:02:13;;;;;;;13.20;9.50;;;;;;;17.33;54.82;99227.83;108318;1304;22435;-43
2023/04/16 10:04:50;;;;;;;11.20;9.50;;;;;;;18.10;54.18;99230.43;108316;1304;22211;-46
2023/04/16 10:07:15;;;;;;;;;;;;;;;18.47;50.64;99234.45;108350;1304;22515;-47
2023/04/16 10:09:41;;;;;;;10.30;8.90;;;;;;;19.01;48.99;99236.73;108314;1304;22402;-45
2023/04/16 10:12:07;;;;;;;10.00;8.60;;;;;;;19.56;47.61;99240.02;108314;1304;22335;-42
2023/04/16 10:14:33;;;;;;;13.60;8.60;;;;;;;19.86;46.18;99241.70;108336;1304;23422;-44
2023/04/16 10:16:59;;;;;;;9.70;8.70;;;;;;;19.89;46.97;99243.69;108322;1304;22215;-41
2023/04/16 10:19:26;;;;;;;12.40;8.50;;;;;;;20.66;51.96;99242.95;108313;1304;22270;-44
2023/04/16 10:21:52;;;;;;;11.70;9.00;;;;;;;20.50;46.96;99243.39;108327;1304;22412;-42
2023/04/16 10:24:17;;;;;;;10.40;9.00;;;;;;;20.54;46.00;99240.58;108327;1304;22236;-42
2023/04/16 10:26:43;;;;;;;10.70;8.80;;;;;;;20.68;46.56;99235.40;108323;1304;22925;-45
2023/04/16 10:29:11;;;;;;;9.60;8.60;;;;;;;20.63;47.92;99240.75;108316;1304;22403;-45
2023/04/16 10:31:38;;;;;;;10.60;9.30;;;;;;;19.95;45.90;99239.58;108311;1304;22507;-45
2023/04/16 10:34:05;;;;;;;13.50;9.60;;;;;;;19.35;45.94;99242.81;108026;1304;22567;-45
2023/04/16 10:36:36;;;;;;;10.60;9.50;;;;;;;19.73;45.76;99240.76;108154;1304;22218;-40
2023/04/16 10:39:01;;;;;;;13.20;9.00;;;;;;;20.19;44.69;99237.61;108310;1304;22301;-46
2023/04/16 10:41:27;;;;;;;10.70;8.50;;;;;;;20.98;45.04;99236.59;108328;1304;23008;-44
2023/04/16 10:44:05;;;;;;;9.30;8.40;;;;;;;21.73;43.60;99238.09;108323;1304;22208;-45
2023/04/16 10:46:33;;;;;;;10.10;9.10;;;;;;;22.03;41.35;99235.36;108315;1304;22614;-41
2023/04/16 10:49:11;;;;;;;10.80;9.80;;;;;;;22.33;41.00;99235.31;108310;1304;22432;-45
2023/04/16 10:51:36;;;;;;;9.70;8.60;;;;;;;22.50;39.79;99234.81;108332;1304;22246;-45
2023/04/16 10:54:03;;;;;;;9.90;8.90;;;;;;;23.07;39.09;99236.05;108316;1304;23044;-45
2023/04/16 10:56:31;;;;;;;10.00;8.40;;;;;;;23.37;38.18;99235.66;108331;1304;23097;-43
2023/04/16 10:58:56;;;;;;;10.80;8.10;;;;;;;23.65;37.65;99239.14;108317;1304;22328;-45
2023/04/16 11:01:30;;;;;;;19.00;9.00;;;;;;;24.05;37.02;99247.45;108325;1304;22281;-43
2023/04/16 11:03:58;;;;;;;9.80;8.80;;;;;;;24.31;36.03;99249.25;108296;1304;23113;-47
2023/04/16 11:06:25;;;;;;;9.40;8.30;;;;;;;24.07;35.86;99249.59;108335;1304;22215;-44
2023/04/16 11:08:51;;;;;;;9.50;8.60;;;;;;;23.38;37.60;99248.09;108324;1304;22435;-47
2023/04/16 11:11:20;;;;;;;11.40;10.00;;;;;;;22.47;38.01;99248.09;107595;1304;22506;-40
2023/04/16 11:13:46;;;;;;;10.90;9.80;;;;;;;21.52;38.99;99254.34;108325;1304;22400;-42
2023/04/16 11:16:16;;;;;;;10.30;9.20;;;;;;;21.48;40.40;99254.88;108351;1304;22234;-41